createdAt,value
2023-04-10T00:02:27.890Z,12.75
2023-04-10T00:04:55.956Z,14.98
2023-04-10T00:07:23.942Z,13.30
2023-04-10T00:09:53.500Z,13.32
2023-04-10T00:12:21.710Z,15.50
2023-04-10T00:14:49.777Z,15.15
2023-04-10T00:17:17.816Z,14.52
2023-04-10T00:19:45.760Z,14.63
2023-04-10T00:22:13.720Z,12.65
2023-04-10T00:24:41.699Z,13.65
2023-04-10T00:27:11.031Z,12.18
2023-04-10T00:29:39.022Z,13.40
2023-04-10T00:32:07.055Z,12.60
2023-04-10T00:34:35.191Z,13.93
2023-04-10T00:37:03.177Z,13.57
2023-04-10T00:39:31.159Z,13.50
2023-04-10T00:41:59.710Z,11.95
2023-04-10T00:44:29.333Z,12.10
2023-04-10T00:46:57.442Z,12.90
2023-04-10T00:49:25.508Z,12.82
2023-04-10T00:51:53.531Z,16.20
2023-04-10T00:54:21.702Z,13.57
2023-04-10T00:56:50.899Z,13.15
2023-04-10T00:59:19.004Z,13.40
2023-04-10T01:01:48.393Z,12.27
2023-04-10T01:04:17.285Z,14.52
2023-04-10T01:06:55.248Z,12.32
2023-04-10T01:09:36.378Z,14.73
2023-04-10T01:12:16.383Z,12.27
2023-04-10T01:14:54.100Z,13.00
2023-04-10T01:17:32.512Z,14.10
2023-04-10T01:20:05.501Z,13.90
2023-04-10T01:22:37.490Z,12.20
2023-04-10T01:25:33.979Z,14.65
2023-04-10T01:28:17.214Z,14.93
2023-04-10T01:30:48.905Z,12.77
2023-04-10T01:33:20.514Z,15.10
2023-04-10T01:35:53.342Z,14.83
2023-04-10T01:38:25.487Z,14.50
2023-04-10T01:40:56.222Z,13.32
2023-04-10T01:43:26.157Z,15.13
2023-04-10T01:45:57.508Z,16.75
2023-04-10T01:48:26.024Z,13.67
2023-04-10T01:50:55.720Z,15.93
2023-04-10T01:53:24.995Z,17.90
2023-04-10T01:55:54.870Z,15.73
2023-04-10T01:58:22.832Z,14.57
2023-04-10T02:00:50.958Z,14.68
2023-04-10T02:03:20.566Z,14.38
2023-04-10T02:06:02.460Z,17.92
2023-04-10T02:08:36.132Z,16.63
2023-04-10T02:11:13.393Z,15.32
2023-04-10T02:13:43.417Z,16.92
2023-04-10T02:16:13.581Z,16.48
2023-04-10T02:18:44.604Z,18.50
2023-04-10T02:21:12.763Z,16.15
2023-04-10T02:23:41.229Z,17.05
2023-04-10T02:26:09.990Z,16.60
2023-04-10T02:28:39.354Z,16.00
2023-04-10T02:31:08.062Z,16.20
2023-04-10T02:33:36.141Z,16.77
2023-04-10T02:36:06.245Z,15.85
2023-04-10T02:38:34.285Z,18.30
2023-04-10T02:41:02.337Z,17.13
2023-04-10T02:43:30.335Z,17.08
2023-04-10T02:45:58.312Z,17.17
2023-04-10T02:48:26.517Z,16.17
2023-04-10T02:50:58.199Z,17.73
2023-04-10T02:53:27.670Z,16.75
2023-04-10T02:55:55.900Z,16.35
2023-04-10T02:58:23.905Z,16.38
2023-04-10T03:00:52.880Z,16.52
2023-04-10T03:03:21.386Z,15.18
2023-04-10T03:05:49.850Z,14.90
2023-04-10T03:08:18.453Z,19.23
2023-04-10T03:10:49.286Z,17.20
2023-04-10T03:13:17.964Z,16.20
2023-04-10T03:15:46.027Z,15.27
2023-04-10T03:18:14.164Z,17.58
2023-04-10T03:20:44.510Z,17.70
2023-04-10T03:23:13.150Z,13.43
2023-04-10T03:25:41.171Z,17.02
2023-04-10T03:28:10.748Z,13.63
2023-04-10T03:30:38.789Z,15.35
2023-04-10T03:33:06.749Z,14.45
2023-04-10T03:35:34.772Z,14.25
2023-04-10T03:38:02.825Z,15.15
2023-04-10T03:40:31.223Z,13.90
2023-04-10T03:42:59.204Z,16.35
2023-04-10T03:45:28.559Z,13.98
2023-04-10T03:47:56.597Z,13.45
2023-04-10T03:50:24.596Z,13.23
2023-04-10T03:52:53.020Z,14.98
2023-04-10T03:55:21.316Z,12.48
2023-04-10T03:57:49.797Z,12.63
2023-04-10T04:00:18.828Z,12.20
2023-04-10T04:02:48.464Z,13.60
2023-04-10T04:05:16.695Z,12.15
2023-04-10T04:07:44.644Z,12.32
2023-04-10T04:10:12.618Z,11.57
2023-04-10T04:12:40.708Z,11.55
2023-04-10T04:15:09.676Z,10.50
2023-04-10T04:17:37.656Z,12.48
2023-04-10T04:20:08.649Z,12.07
2023-04-10T04:22:36.648Z,10.90
2023-04-10T04:25:08.791Z,12.40
2023-04-10T04:27:36.756Z,10.68
2023-04-10T04:30:06.055Z,11.82
2023-04-10T04:32:34.133Z,10.63
2023-04-10T04:35:02.102Z,11.98
2023-04-10T04:37:31.452Z,10.23
2023-04-10T04:39:59.449Z,11.45
2023-04-10T04:42:27.407Z,12.57
2023-04-10T04:44:55.388Z,13.20
2023-04-10T04:47:24.290Z,13.07
2023-04-10T04:49:52.345Z,14.32
2023-04-10T04:52:20.358Z,12.18
2023-04-10T04:54:49.681Z,12.05
2023-04-10T04:57:17.646Z,11.57
2023-04-10T04:59:45.645Z,10.27
2023-04-10T05:02:13.701Z,10.38
2023-04-10T05:04:42.120Z,9.90
2023-04-10T05:07:10.138Z,11.65
2023-04-10T05:09:38.090Z,9.57
2023-04-10T05:12:07.588Z,10.25
2023-04-10T05:14:35.692Z,9.80
2023-04-10T05:17:03.957Z,9.02
2023-04-10T05:19:31.939Z,10.45
2023-04-10T05:21:59.962Z,12.27
2023-04-10T05:24:27.925Z,11.43
2023-04-10T05:26:56.048Z,10.65
2023-04-10T05:29:25.556Z,9.63
2023-04-10T05:31:53.632Z,9.82
2023-04-10T05:34:21.600Z,9.60
2023-04-10T05:36:49.614Z,10.38
2023-04-10T05:39:17.639Z,9.85
2023-04-10T05:41:45.750Z,9.98
2023-04-10T05:44:13.759Z,8.48
2023-04-10T05:46:43.142Z,11.68
2023-04-10T05:49:11.181Z,10.85
2023-04-10T05:51:39.154Z,10.05
2023-04-10T05:54:07.173Z,9.38
2023-04-10T05:56:35.226Z,8.93
2023-04-10T05:59:03.152Z,9.70
2023-04-10T06:01:31.473Z,9.75
2023-04-10T06:04:01.071Z,10.05
2023-04-10T06:06:29.755Z,10.20
2023-04-10T06:08:57.744Z,10.25
2023-04-10T06:11:25.786Z,9.02
2023-04-10T06:13:53.788Z,8.80
2023-04-10T06:16:21.874Z,10.07
2023-04-10T06:18:52.356Z,9.82
2023-04-10T06:21:22.196Z,8.82
2023-04-10T06:23:50.283Z,9.65
2023-04-10T06:26:18.482Z,9.40
2023-04-10T06:28:46.619Z,9.13
2023-04-10T06:31:14.603Z,8.90
2023-04-10T06:33:42.612Z,9.05
2023-04-10T06:36:10.673Z,8.30
2023-04-10T06:38:40.099Z,10.50
2023-04-10T06:41:08.560Z,9.63
2023-04-10T06:43:38.005Z,9.25
2023-04-10T06:46:06.510Z,7.97
2023-04-10T06:48:35.025Z,7.95
2023-04-10T06:51:02.965Z,8.43
2023-04-10T06:53:31.527Z,9.90
2023-04-10T06:56:03.083Z,8.65
2023-04-10T06:58:31.665Z,8.60
2023-04-10T07:01:04.166Z,8.43
2023-04-10T07:03:32.603Z,9.55
2023-04-10T07:06:01.961Z,8.85
2023-04-10T07:08:29.935Z,8.88
2023-04-10T07:10:58.798Z,8.73
2023-04-10T07:13:28.381Z,8.88
2023-04-10T07:15:56.556Z,10.90
2023-04-10T07:18:24.532Z,10.57
2023-04-10T07:20:54.058Z,9.55
2023-04-10T07:23:22.650Z,10.13
2023-04-10T07:25:51.649Z,9.55
2023-04-10T07:28:19.596Z,9.95
2023-04-10T07:30:48.984Z,10.30
2023-04-10T07:33:17.316Z,10.25
2023-04-10T07:35:45.531Z,9.75
2023-04-10T07:38:14.143Z,9.95
2023-04-10T07:40:42.064Z,12.25
2023-04-10T07:43:10.071Z,10.38
2023-04-10T07:45:38.108Z,8.90
2023-04-10T07:48:08.384Z,9.55
2023-04-10T07:50:36.496Z,11.63
2023-04-10T07:53:08.212Z,9.00
2023-04-10T07:55:39.599Z,9.45
2023-04-10T07:58:07.758Z,9.68
2023-04-10T08:00:36.262Z,11.88
2023-04-10T08:03:05.608Z,9.52
2023-04-10T08:05:35.268Z,10.80
2023-04-10T08:08:03.288Z,8.63
2023-04-10T08:10:31.280Z,9.40
2023-04-10T08:12:59.271Z,9.32
2023-04-10T08:15:27.348Z,10.90
2023-04-10T08:17:55.426Z,9.70
2023-04-10T08:20:23.615Z,8.82
2023-04-10T08:22:53.016Z,11.20
2023-04-10T08:25:20.989Z,9.27
2023-04-10T08:27:48.973Z,10.20
2023-04-10T08:30:16.967Z,10.10
2023-04-10T08:32:44.936Z,9.57
2023-04-10T08:35:12.881Z,9.90
2023-04-10T08:37:41.422Z,9.73
2023-04-10T08:40:12.390Z,11.80
2023-04-10T08:42:40.437Z,10.75
2023-04-10T08:45:09.972Z,9.10
2023-04-10T08:47:39.710Z,9.63
2023-04-10T08:50:11.984Z,10.20
2023-04-10T08:52:45.127Z,9.52
2023-04-10T08:55:15.625Z,10.32
2023-04-10T08:57:50.876Z,9.27
2023-04-10T09:00:26.867Z,9.20
2023-04-10T09:05:45.972Z,9.73
2023-04-10T09:08:16.405Z,11.43
2023-04-10T09:10:45.893Z,9.32
2023-04-10T09:13:13.879Z,11.52
2023-04-10T09:15:57.881Z,9.48
2023-04-10T09:18:45.412Z,10.23
2023-04-10T09:21:15.838Z,9.02
2023-04-10T09:23:45.119Z,8.32
2023-04-10T09:26:30.950Z,8.82
2023-04-10T09:29:01.250Z,10.15
2023-04-10T09:31:31.350Z,8.68
2023-04-10T09:34:10.552Z,8.80
2023-04-10T09:36:38.888Z,8.70
2023-04-10T09:39:07.073Z,9.13
2023-04-10T09:41:36.497Z,8.52
2023-04-10T09:44:09.122Z,10.75
2023-04-10T09:46:37.252Z,11.40
2023-04-10T09:49:07.429Z,9.60
2023-04-10T09:51:36.953Z,9.43
2023-04-10T09:54:05.434Z,9.57
2023-04-10T09:56:38.113Z,9.75
2023-04-10T09:59:08.287Z,9.27
2023-04-10T10:01:38.716Z,9.90
2023-04-10T10:04:06.801Z,9.27
2023-04-10T10:06:35.456Z,9.02
2023-04-10T10:09:05.255Z,8.60
2023-04-10T10:11:35.427Z,8.23
2023-04-10T10:14:10.374Z,8.40
2023-04-10T10:16:44.280Z,8.27
2023-04-10T10:19:17.769Z,8.32
2023-04-10T10:21:46.658Z,9.00
2023-04-10T10:24:14.948Z,8.63
2023-04-10T10:26:44.271Z,8.20
2023-04-10T10:29:18.523Z,10.25
2023-04-10T10:31:47.987Z,8.90
2023-04-10T10:34:16.865Z,8.23
2023-04-10T10:36:44.951Z,7.82
2023-04-10T10:39:30.575Z,8.68
2023-04-10T10:42:06.819Z,9.02
2023-04-10T10:44:43.933Z,12.00
2023-04-10T10:47:17.274Z,8.88
2023-04-10T10:50:06.515Z,8.38
2023-04-10T10:52:42.060Z,7.55
2023-04-10T10:55:31.523Z,7.53
2023-04-10T10:58:01.595Z,7.90
2023-04-10T11:01:11.008Z,8.85
2023-04-10T11:03:40.749Z,8.07
2023-04-10T11:06:12.573Z,7.13
2023-04-10T11:08:44.263Z,8.13
2023-04-10T11:11:16.109Z,7.82
2023-04-10T11:14:17.793Z,7.10
2023-04-10T11:16:49.374Z,6.95
2023-04-10T11:19:22.770Z,7.32
2023-04-10T11:22:06.190Z,6.70
2023-04-10T11:25:03.084Z,7.32
2023-04-10T11:27:49.671Z,8.13
2023-04-10T11:30:34.642Z,8.25
2023-04-10T11:33:03.747Z,10.48
2023-04-10T11:35:34.093Z,9.35
2023-04-10T11:38:16.011Z,7.60
2023-04-10T11:41:04.406Z,6.93
2023-04-10T11:43:33.749Z,7.32
2023-04-10T11:46:03.537Z,7.97
2023-04-10T11:48:31.981Z,8.25
2023-04-10T11:51:08.666Z,8.20
2023-04-10T11:53:36.808Z,7.03
2023-04-10T11:56:07.495Z,7.88
2023-04-10T11:58:35.508Z,6.25
2023-04-10T12:01:04.983Z,8.57
2023-04-10T12:03:38.200Z,6.43
2023-04-10T12:06:10.145Z,7.82
2023-04-10T12:08:41.256Z,7.00
2023-04-10T12:11:11.677Z,7.80
2023-04-10T12:13:40.400Z,6.93
2023-04-10T12:16:10.327Z,6.43
2023-04-10T12:18:38.835Z,8.02
2023-04-10T12:21:09.105Z,9.23
2023-04-10T12:23:40.029Z,9.32
2023-04-10T12:26:13.404Z,9.73
2023-04-10T12:28:42.962Z,7.80
2023-04-10T12:31:11.228Z,9.95
2023-04-10T12:33:40.254Z,9.80
2023-04-10T12:36:22.089Z,9.15
2023-04-10T12:38:50.325Z,9.05
2023-04-10T12:41:23.718Z,13.65
2023-04-10T12:43:52.758Z,10.05
2023-04-10T12:46:26.338Z,10.00
2023-04-10T12:48:54.504Z,8.82
2023-04-10T12:51:43.126Z,10.63
2023-04-10T12:54:11.317Z,10.73
2023-04-10T12:56:43.168Z,9.43
2023-04-10T12:59:11.294Z,12.32
2023-04-10T13:01:40.105Z,8.98
2023-04-10T13:04:08.539Z,11.18
2023-04-10T13:06:45.273Z,10.38
2023-04-10T13:09:14.362Z,9.75
2023-04-10T13:11:42.561Z,9.80
2023-04-10T13:14:11.126Z,11.35
2023-04-10T13:16:39.153Z,11.65
2023-04-10T13:19:07.216Z,11.75
2023-04-10T13:21:35.219Z,10.40
2023-04-10T13:24:04.678Z,11.75
2023-04-10T13:26:32.715Z,11.10
2023-04-10T13:29:00.710Z,13.52
2023-04-10T13:31:28.757Z,12.30
2023-04-10T13:33:56.743Z,11.77
2023-04-10T13:36:24.862Z,13.57
2023-04-10T13:38:53.139Z,11.57
2023-04-10T13:41:23.770Z,12.00
2023-04-10T13:43:51.836Z,12.27
2023-04-10T13:46:19.937Z,12.15
2023-04-10T13:48:47.996Z,12.13
2023-04-10T13:51:16.068Z,11.80
2023-04-10T13:53:44.048Z,12.35
2023-04-10T13:56:12.035Z,12.45
2023-04-10T13:58:41.440Z,10.88
2023-04-10T14:01:09.856Z,9.77
2023-04-10T14:03:37.929Z,13.23
2023-04-10T14:06:06.397Z,13.73
2023-04-10T14:08:34.352Z,9.68
2023-04-10T14:11:02.278Z,10.07
2023-04-10T14:13:30.442Z,9.13
2023-04-10T14:16:01.221Z,11.82
2023-04-10T14:18:29.180Z,11.52
2023-04-10T14:20:57.093Z,12.88
2023-04-10T14:23:25.128Z,11.05
2023-04-10T14:25:53.077Z,9.95
2023-04-10T14:28:21.038Z,11.43
2023-04-10T14:30:50.966Z,9.45
2023-04-10T14:33:20.942Z,11.63
2023-04-10T14:35:49.315Z,16.25
2023-04-10T14:38:17.441Z,12.40
2023-04-10T14:40:48.976Z,11.52
2023-04-10T14:43:17.514Z,11.15
2023-04-10T14:45:45.659Z,13.50
2023-04-10T14:48:13.940Z,14.18
2023-04-10T14:50:43.409Z,13.40
2023-04-10T14:53:11.373Z,15.70
2023-04-10T14:55:39.332Z,14.13
2023-04-10T14:58:08.960Z,15.75
2023-04-10T15:00:36.971Z,18.60
2023-04-10T15:03:06.254Z,13.90
2023-04-10T15:05:34.611Z,15.50
2023-04-10T15:08:04.016Z,14.80
2023-04-10T15:10:31.955Z,15.07
2023-04-10T15:12:59.969Z,16.08
2023-04-10T15:15:27.898Z,16.98
2023-04-10T15:17:56.115Z,16.30
2023-04-10T15:20:24.112Z,19.55
2023-04-10T15:22:52.065Z,17.60
2023-04-10T15:25:21.418Z,18.40
2023-04-10T15:27:49.385Z,14.73
2023-04-10T15:30:17.659Z,15.20
2023-04-10T15:32:45.716Z,14.25
2023-04-10T15:35:13.724Z,17.02
2023-04-10T15:37:41.706Z,18.10
2023-04-10T15:40:10.533Z,15.93
2023-04-10T15:42:40.036Z,16.70
2023-04-10T15:45:08.676Z,14.23
2023-04-10T15:47:36.964Z,13.55
2023-04-10T15:50:05.713Z,14.50
2023-04-10T15:52:33.937Z,13.88
2023-04-10T15:55:01.915Z,13.50
2023-04-10T15:57:29.948Z,14.60
2023-04-10T16:00:01.465Z,14.43
2023-04-10T16:02:29.826Z,15.38
2023-04-10T16:04:57.942Z,14.68
2023-04-10T16:07:26.025Z,15.32
2023-04-10T16:09:55.146Z,12.25
2023-04-10T16:12:23.106Z,12.48
2023-04-10T16:14:51.144Z,10.40
2023-04-10T16:17:20.587Z,10.80
2023-04-10T16:19:48.624Z,13.45
2023-04-10T16:22:16.585Z,9.40
2023-04-10T16:24:44.513Z,13.02
2023-04-10T16:27:12.509Z,10.27
2023-04-10T16:29:40.536Z,11.70
2023-04-10T16:32:08.561Z,8.73
2023-04-10T16:34:37.885Z,11.02
2023-04-10T16:37:05.875Z,12.93
2023-04-10T16:39:33.839Z,12.50
2023-04-10T16:42:03.445Z,9.23
2023-04-10T16:44:31.487Z,9.38
2023-04-10T16:46:59.785Z,9.43
2023-04-10T16:49:27.846Z,11.20
2023-04-10T16:51:57.244Z,11.07
2023-04-10T16:54:25.210Z,10.35
2023-04-10T16:56:53.148Z,10.15
2023-04-10T16:59:21.075Z,9.23
2023-04-10T17:01:49.031Z,9.52
2023-04-10T17:04:18.934Z,9.95
2023-04-10T17:06:46.970Z,11.32
2023-04-10T17:09:16.357Z,8.38
2023-04-10T17:11:44.698Z,7.65
2023-04-10T17:14:13.466Z,8.55
2023-04-10T17:16:41.568Z,9.07
2023-04-10T17:19:09.591Z,8.85
2023-04-10T17:21:37.512Z,9.45
2023-04-10T17:24:05.728Z,9.20
2023-04-10T17:26:35.193Z,9.30
2023-04-10T17:29:03.133Z,8.60
2023-04-10T17:31:31.404Z,8.13
2023-04-10T17:33:59.372Z,6.68
2023-04-10T17:36:28.005Z,8.50
2023-04-10T17:38:56.446Z,7.93
2023-04-10T17:41:24.669Z,6.60
2023-04-10T17:43:54.054Z,8.80
2023-04-10T17:46:22.409Z,8.20
2023-04-10T17:48:50.420Z,6.90
2023-04-10T17:51:18.478Z,6.43
2023-04-10T17:53:47.152Z,10.95
2023-04-10T17:56:21.607Z,7.95
2023-04-10T17:58:49.606Z,7.05
2023-04-10T18:01:26.102Z,9.32
2023-04-10T18:03:54.285Z,9.18
2023-04-10T18:06:22.439Z,8.18
2023-04-10T18:08:50.825Z,8.30
2023-04-10T18:11:19.075Z,7.40
2023-04-10T18:13:48.029Z,9.57
2023-04-10T18:16:16.030Z,9.80
2023-04-10T18:18:45.442Z,12.15
2023-04-10T18:21:13.723Z,12.60
2023-04-10T18:23:42.195Z,11.90
2023-04-10T18:26:10.146Z,12.50
2023-04-10T18:28:38.715Z,14.27
2023-04-10T18:31:08.406Z,13.50
2023-04-10T18:33:36.522Z,10.48
2023-04-10T18:36:06.359Z,11.32
2023-04-10T18:38:35.167Z,12.63
2023-04-10T18:41:03.197Z,12.68
2023-04-10T18:43:31.212Z,13.07
2023-04-10T18:45:59.214Z,15.70
2023-04-10T18:48:27.147Z,12.40
2023-04-10T18:50:55.523Z,16.30
2023-04-10T18:53:24.964Z,15.23
2023-04-10T18:55:53.310Z,12.55
2023-04-10T18:58:22.157Z,12.85
2023-04-10T19:00:50.373Z,16.80
2023-04-10T19:03:18.513Z,13.77
2023-04-10T19:05:46.792Z,11.63
2023-04-10T19:08:15.678Z,12.40
2023-04-10T19:10:47.208Z,14.95
2023-04-10T19:13:15.739Z,11.97
2023-04-10T19:15:45.544Z,12.18
2023-04-10T19:18:15.810Z,14.40
2023-04-10T19:20:50.553Z,12.50
2023-04-10T19:23:20.981Z,17.95
2023-04-10T19:25:54.526Z,14.02
2023-04-10T19:28:24.344Z,16.63
2023-04-10T19:30:53.071Z,16.63
2023-04-10T19:33:21.124Z,17.85
2023-04-10T19:35:49.179Z,15.32
2023-04-10T19:38:17.184Z,19.75
2023-04-10T19:40:45.458Z,14.77
2023-04-10T19:43:14.872Z,18.48
2023-04-10T19:45:42.918Z,21.33
2023-04-10T19:48:11.986Z,15.63
2023-04-10T19:50:39.935Z,23.17
2023-04-10T19:53:07.954Z,17.60
2023-04-10T19:55:36.103Z,20.52
2023-04-10T19:58:04.181Z,18.08
2023-04-10T20:00:33.551Z,16.20
2023-04-10T20:03:01.621Z,16.98
2023-04-10T20:05:30.978Z,19.00
2023-04-10T20:07:59.001Z,17.23
2023-04-10T20:10:27.139Z,14.57
2023-04-10T20:12:55.179Z,15.00
2023-04-10T20:15:23.154Z,19.63
2023-04-10T20:17:52.524Z,18.13
2023-04-10T20:20:20.583Z,22.25
2023-04-10T20:22:49.072Z,17.05
2023-04-10T20:25:17.063Z,16.75
2023-04-10T20:27:45.030Z,19.65
2023-04-10T20:30:13.261Z,18.52
2023-04-10T20:32:41.299Z,20.30
2023-04-10T20:35:11.196Z,17.42
2023-04-10T20:37:39.163Z,24.73
2023-04-10T20:40:08.473Z,20.30
2023-04-10T20:42:36.491Z,25.13
2023-04-10T20:45:04.650Z,20.90
2023-04-10T20:47:32.658Z,21.00
2023-04-10T20:50:00.626Z,22.80
2023-04-10T20:52:29.976Z,27.63
2023-04-10T20:54:57.946Z,23.38
2023-04-10T20:57:26.035Z,23.83
2023-04-10T20:59:54.070Z,18.70
2023-04-10T21:02:22.114Z,27.15
2023-04-10T21:04:52.095Z,23.90
2023-04-10T21:07:20.083Z,24.95
2023-04-10T21:09:49.420Z,22.63
2023-04-10T21:12:17.429Z,32.13
2023-04-10T21:14:45.849Z,29.00
2023-04-10T21:17:13.844Z,32.08
2023-04-10T21:19:41.812Z,31.92
2023-04-10T21:22:10.256Z,34.40
2023-04-10T21:24:38.264Z,21.48
2023-04-10T21:27:08.065Z,27.67
2023-04-10T21:29:36.070Z,12.63
2023-04-10T21:32:04.125Z,17.95
2023-04-10T21:34:32.137Z,17.10
2023-04-10T21:37:00.244Z,15.43
2023-04-10T21:39:29.726Z,14.52
2023-04-10T21:41:58.014Z,12.25
2023-04-10T21:44:27.361Z,13.13
2023-04-10T21:46:55.295Z,11.55
2023-04-10T21:49:23.318Z,12.10
2023-04-10T21:51:51.326Z,11.52
2023-04-10T21:54:19.312Z,12.63
2023-04-10T21:56:47.297Z,10.45
2023-04-10T21:59:15.392Z,11.48
2023-04-10T22:01:44.781Z,14.05
2023-04-10T22:04:13.166Z,11.02
2023-04-10T22:06:41.214Z,15.60
2023-04-10T22:09:09.319Z,18.38
2023-04-10T22:11:39.025Z,12.60
2023-04-10T22:14:15.384Z,20.50
2023-04-10T22:16:46.792Z,15.57
2023-04-10T22:19:14.801Z,23.85
2023-04-10T22:21:42.838Z,20.60
2023-04-10T22:24:10.900Z,23.30
2023-04-10T22:26:41.992Z,25.27
2023-04-10T22:29:09.960Z,22.58
2023-04-10T22:31:37.899Z,28.75
2023-04-10T22:34:08.302Z,29.70
2023-04-10T22:36:36.362Z,24.25
2023-04-10T22:39:04.685Z,18.83
2023-04-10T22:41:33.429Z,19.80
2023-04-10T22:44:01.466Z,18.42
2023-04-10T22:46:29.611Z,13.45
2023-04-10T22:48:57.875Z,15.90
2023-04-10T22:51:27.701Z,11.18
2023-04-10T22:53:55.676Z,14.90
2023-04-10T22:56:26.457Z,15.75
2023-04-10T22:58:54.649Z,16.08
2023-04-10T23:01:23.130Z,16.20
2023-04-10T23:03:53.640Z,19.15
2023-04-10T23:06:21.774Z,18.92
2023-04-10T23:08:52.205Z,22.65
2023-04-10T23:11:20.327Z,22.17
2023-04-10T23:13:48.815Z,23.38
2023-04-10T23:16:16.925Z,28.92
2023-04-10T23:18:44.961Z,36.78
2023-04-10T23:21:12.914Z,37.60
2023-04-10T23:23:40.856Z,25.83
2023-04-10T23:26:11.404Z,34.80
2023-04-10T23:28:39.531Z,43.78
2023-04-10T23:31:09.030Z,38.08
2023-04-10T23:33:37.206Z,32.25
2023-04-10T23:36:05.951Z,40.72
2023-04-10T23:38:34.055Z,37.10
2023-04-10T23:41:02.871Z,32.50
2023-04-10T23:43:32.267Z,29.23
2023-04-10T23:46:00.291Z,34.90
2023-04-10T23:48:28.298Z,31.25
2023-04-10T23:51:04.364Z,32.97
2023-04-10T23:53:32.444Z,33.80
2023-04-10T23:56:00.509Z,32.20
2023-04-10T23:58:28.517Z,26.88
